AEE767 LGAV-LGSM
Flight info
| Callsign | AEE767 |
|---|---|
| Flight time | 0h 32m |
| Altitude | 230 |
| Route | LGAV/03R N0394F230 DCT VARIX L995 RIPLI R32 IKARO G18 URNIL URNI1C LGSM/09 |
| Aircraft | A320/M-V/N |
Departure
| Time | 2026-05-06 06:25 |
|---|---|
| Airport | Athens Eleftherios Venizelos International Airport (LGAV) |
Arrival
| Time | 2026-05-06 06:57 |
|---|---|
| Airport | Samos Airport (LGSM) |
| Time | Latitude | Longitude | Altitude | Speed | Heading |
|---|---|---|---|---|---|
| 2026-05-06 06:13 | 37.93289 | 23.94535 | 302 ft | 0 kts | 308° |
| 2026-05-06 06:19 | 37.93285 | 23.94541 | 301 ft | 2 kts | 308° |
| 2026-05-06 06:19 | 37.93275 | 23.94557 | 302 ft | 2 kts | 299° |
| 2026-05-06 06:19 | 37.93272 | 23.94576 | 302 ft | 2 kts | 232° |
| 2026-05-06 06:19 | 37.93277 | 23.94584 | 301 ft | 0 kts | 200° |
| 2026-05-06 06:20 | 37.93272 | 23.94582 | 301 ft | 2 kts | 200° |
| 2026-05-06 06:20 | 37.93249 | 23.94580 | 301 ft | 5 kts | 178° |
| 2026-05-06 06:20 | 37.93204 | 23.94588 | 302 ft | 8 kts | 168° |
| 2026-05-06 06:21 | 37.93141 | 23.94610 | 303 ft | 11 kts | 159° |
| 2026-05-06 06:21 | 37.93060 | 23.94661 | 301 ft | 14 kts | 153° |
| 2026-05-06 06:21 | 37.92964 | 23.94630 | 301 ft | 16 kts | 214° |
| 2026-05-06 06:21 | 37.92863 | 23.94537 | 301 ft | 19 kts | 217° |
| 2026-05-06 06:22 | 37.92752 | 23.94425 | 302 ft | 22 kts | 217° |
| 2026-05-06 06:22 | 37.92622 | 23.94307 | 304 ft | 23 kts | 209° |
| 2026-05-06 06:22 | 37.92516 | 23.94357 | 307 ft | 0 kts | 129° |
| 2026-05-06 06:23 | 37.92513 | 23.94362 | 307 ft | 5 kts | 129° |
| 2026-05-06 06:23 | 37.92499 | 23.94456 | 308 ft | 15 kts | 59° |
| 2026-05-06 06:24 | 37.92550 | 23.94517 | 307 ft | 1 kts | 38° |
| 2026-05-06 06:24 | 37.92628 | 23.94593 | 305 ft | 44 kts | 38° |
| 2026-05-06 06:24 | 37.93083 | 23.95037 | 297 ft | 117 kts | 37° |
| 2026-05-06 06:24 | 37.93886 | 23.95786 | 335 ft | 164 kts | 35° |
| 2026-05-06 06:25 | 37.94850 | 23.96671 | 938 ft | 173 kts | 37° |
| 2026-05-06 06:25 | 37.95808 | 23.97581 | 1707 ft | 173 kts | 37° |
| 2026-05-06 06:25 | 37.96869 | 24.00474 | 2475 ft | 221 kts | 108° |
| 2026-05-06 06:26 | 37.96092 | 24.02262 | 2998 ft | 245 kts | 126° |
| 2026-05-06 06:26 | 37.95020 | 24.04061 | 3620 ft | 265 kts | 129° |
| 2026-05-06 06:26 | 37.93845 | 24.05911 | 4585 ft | 272 kts | 129° |
| 2026-05-06 06:26 | 37.92650 | 24.07803 | 5589 ft | 278 kts | 128° |
| 2026-05-06 06:27 | 37.91449 | 24.09749 | 6578 ft | 283 kts | 127° |
| 2026-05-06 06:27 | 37.90249 | 24.11746 | 7514 ft | 287 kts | 126° |
| 2026-05-06 06:27 | 37.89045 | 24.13791 | 8469 ft | 292 kts | 125° |
| 2026-05-06 06:27 | 37.87832 | 24.15873 | 9429 ft | 296 kts | 125° |
| 2026-05-06 06:28 | 37.86603 | 24.17989 | 10262 ft | 304 kts | 124° |
| 2026-05-06 06:28 | 37.85304 | 24.20234 | 10615 ft | 328 kts | 124° |
| 2026-05-06 06:28 | 37.83911 | 24.22644 | 10897 ft | 351 kts | 125° |
| 2026-05-06 06:28 | 37.82423 | 24.25215 | 11243 ft | 370 kts | 125° |
| 2026-05-06 06:29 | 37.80885 | 24.27865 | 11879 ft | 377 kts | 125° |
| 2026-05-06 06:29 | 37.79315 | 24.30561 | 12578 ft | 383 kts | 125° |
| 2026-05-06 06:29 | 37.77743 | 24.33254 | 13276 ft | 389 kts | 126° |
| 2026-05-06 06:29 | 37.76104 | 24.36061 | 13985 ft | 395 kts | 126° |
| 2026-05-06 06:30 | 37.74461 | 24.38870 | 14600 ft | 400 kts | 125° |
| 2026-05-06 06:30 | 37.72797 | 24.41714 | 15164 ft | 406 kts | 125° |
| 2026-05-06 06:30 | 37.71108 | 24.44602 | 15751 ft | 411 kts | 125° |
| 2026-05-06 06:30 | 37.69399 | 24.47522 | 16340 ft | 416 kts | 125° |
| 2026-05-06 06:31 | 37.67667 | 24.50477 | 16930 ft | 421 kts | 125° |
| 2026-05-06 06:31 | 37.65916 | 24.53462 | 17551 ft | 426 kts | 125° |
| 2026-05-06 06:31 | 37.64144 | 24.56482 | 18154 ft | 431 kts | 125° |
| 2026-05-06 06:31 | 37.62350 | 24.59532 | 18700 ft | 436 kts | 125° |
| 2026-05-06 06:32 | 37.60533 | 24.62615 | 19259 ft | 440 kts | 125° |
| 2026-05-06 06:32 | 37.58701 | 24.65726 | 19828 ft | 444 kts | 125° |
| 2026-05-06 06:32 | 37.56849 | 24.68866 | 20351 ft | 448 kts | 125° |
| 2026-05-06 06:32 | 37.54980 | 24.72038 | 20843 ft | 454 kts | 125° |
| 2026-05-06 06:33 | 37.53148 | 24.75305 | 21314 ft | 457 kts | 118° |
| 2026-05-06 06:33 | 37.51909 | 24.78971 | 21788 ft | 456 kts | 102° |
| 2026-05-06 06:33 | 37.51487 | 24.82894 | 22256 ft | 452 kts | 85° |
| 2026-05-06 06:33 | 37.51905 | 24.86787 | 22728 ft | 446 kts | 69° |
| 2026-05-06 06:34 | 37.52808 | 24.90527 | 23042 ft | 449 kts | 68° |
| 2026-05-06 06:34 | 37.53749 | 24.94338 | 23089 ft | 462 kts | 68° |
| 2026-05-06 06:34 | 37.54706 | 24.98203 | 23085 ft | 472 kts | 68° |
| 2026-05-06 06:34 | 37.55696 | 25.02219 | 23089 ft | 475 kts | 68° |
| 2026-05-06 06:35 | 37.56651 | 25.06138 | 23088 ft | 475 kts | 69° |
| 2026-05-06 06:35 | 37.57626 | 25.10176 | 23090 ft | 475 kts | 69° |
| 2026-05-06 06:35 | 37.58568 | 25.14103 | 23091 ft | 475 kts | 69° |
| 2026-05-06 06:35 | 37.59534 | 25.18135 | 23092 ft | 474 kts | 69° |
| 2026-05-06 06:36 | 37.60489 | 25.22116 | 23091 ft | 474 kts | 69° |
| 2026-05-06 06:36 | 37.61446 | 25.26093 | 23092 ft | 474 kts | 69° |
| 2026-05-06 06:36 | 37.62396 | 25.30020 | 23097 ft | 474 kts | 69° |
| 2026-05-06 06:36 | 37.63367 | 25.34048 | 23104 ft | 474 kts | 69° |
| 2026-05-06 06:37 | 37.64309 | 25.37980 | 23107 ft | 474 kts | 69° |
| 2026-05-06 06:37 | 37.65259 | 25.41956 | 23105 ft | 473 kts | 70° |
| 2026-05-06 06:37 | 37.66204 | 25.45925 | 23101 ft | 472 kts | 70° |
| 2026-05-06 06:37 | 37.67151 | 25.49902 | 23099 ft | 472 kts | 70° |
| 2026-05-06 06:38 | 37.68097 | 25.53864 | 23095 ft | 472 kts | 69° |
| 2026-05-06 06:38 | 37.69045 | 25.57829 | 23091 ft | 472 kts | 69° |
| 2026-05-06 06:38 | 37.69990 | 25.61793 | 23089 ft | 471 kts | 70° |
| 2026-05-06 06:38 | 37.70929 | 25.65755 | 23101 ft | 471 kts | 69° |
| 2026-05-06 06:39 | 37.71865 | 25.69724 | 23091 ft | 471 kts | 70° |
| 2026-05-06 06:39 | 37.72800 | 25.73694 | 23087 ft | 471 kts | 70° |
| 2026-05-06 06:39 | 37.73732 | 25.77654 | 23090 ft | 471 kts | 69° |
| 2026-05-06 06:39 | 37.74664 | 25.81611 | 22859 ft | 464 kts | 69° |
| 2026-05-06 06:40 | 37.75562 | 25.85451 | 22467 ft | 448 kts | 69° |
| 2026-05-06 06:40 | 37.76427 | 25.89165 | 22102 ft | 434 kts | 69° |
| 2026-05-06 06:40 | 37.77267 | 25.92774 | 21746 ft | 422 kts | 69° |
| 2026-05-06 06:40 | 37.78085 | 25.96282 | 21394 ft | 412 kts | 69° |
| 2026-05-06 06:41 | 37.78875 | 25.99721 | 21040 ft | 404 kts | 71° |
| 2026-05-06 06:41 | 37.79180 | 26.03236 | 20699 ft | 404 kts | 89° |
| 2026-05-06 06:41 | 37.78705 | 26.06720 | 20351 ft | 401 kts | 102° |
| 2026-05-06 06:41 | 37.78025 | 26.10114 | 20011 ft | 395 kts | 97° |
| 2026-05-06 06:42 | 37.77573 | 26.13526 | 19617 ft | 392 kts | 95° |
| 2026-05-06 06:42 | 37.77158 | 26.16913 | 19110 ft | 389 kts | 95° |
| 2026-05-06 06:42 | 37.76766 | 26.20283 | 18628 ft | 386 kts | 94° |
| 2026-05-06 06:42 | 37.76382 | 26.23635 | 18088 ft | 384 kts | 94° |
| 2026-05-06 06:43 | 37.75998 | 26.26957 | 17543 ft | 381 kts | 94° |
| 2026-05-06 06:43 | 37.75613 | 26.30263 | 16990 ft | 379 kts | 94° |
| 2026-05-06 06:43 | 37.75227 | 26.33540 | 16460 ft | 376 kts | 94° |
| 2026-05-06 06:43 | 37.74836 | 26.36802 | 15927 ft | 374 kts | 95° |
| 2026-05-06 06:44 | 37.74444 | 26.40039 | 15419 ft | 371 kts | 95° |
| 2026-05-06 06:44 | 37.74052 | 26.43248 | 14910 ft | 369 kts | 95° |
| 2026-05-06 06:44 | 37.73663 | 26.46435 | 14408 ft | 366 kts | 95° |
| 2026-05-06 06:44 | 37.73280 | 26.49602 | 13911 ft | 364 kts | 95° |
| 2026-05-06 06:45 | 37.72898 | 26.52749 | 13358 ft | 361 kts | 95° |
| 2026-05-06 06:45 | 37.72519 | 26.55872 | 12797 ft | 359 kts | 95° |
| 2026-05-06 06:45 | 37.72142 | 26.58977 | 12283 ft | 356 kts | 95° |
| 2026-05-06 06:45 | 37.71771 | 26.62008 | 11750 ft | 350 kts | 95° |
| 2026-05-06 06:46 | 37.71403 | 26.64971 | 11239 ft | 338 kts | 95° |
| 2026-05-06 06:46 | 37.71038 | 26.67847 | 10707 ft | 326 kts | 95° |
| 2026-05-06 06:46 | 37.70633 | 26.70611 | 10212 ft | 314 kts | 96° |
| 2026-05-06 06:46 | 37.70222 | 26.73276 | 9664 ft | 305 kts | 96° |
| 2026-05-06 06:47 | 37.69815 | 26.75866 | 9064 ft | 296 kts | 97° |
| 2026-05-06 06:47 | 37.69418 | 26.78394 | 8465 ft | 291 kts | 95° |
| 2026-05-06 06:47 | 37.69184 | 26.80895 | 7886 ft | 284 kts | 89° |
| 2026-05-06 06:47 | 37.69101 | 26.83366 | 7312 ft | 279 kts | 86° |
| 2026-05-06 06:48 | 37.69062 | 26.85798 | 6751 ft | 275 kts | 87° |
| 2026-05-06 06:48 | 37.68987 | 26.88198 | 6184 ft | 272 kts | 88° |
| 2026-05-06 06:48 | 37.68742 | 26.90556 | 5590 ft | 274 kts | 105° |
| 2026-05-06 06:48 | 37.67724 | 26.92580 | 5013 ft | 278 kts | 134° |
| 2026-05-06 06:49 | 37.66058 | 26.93809 | 4422 ft | 280 kts | 161° |
| 2026-05-06 06:49 | 37.64168 | 26.94383 | 3836 ft | 278 kts | 167° |
| 2026-05-06 06:49 | 37.62280 | 26.94858 | 3264 ft | 275 kts | 167° |
| 2026-05-06 06:49 | 37.60408 | 26.95320 | 2684 ft | 273 kts | 168° |
| 2026-05-06 06:50 | 37.58555 | 26.95782 | 2147 ft | 269 kts | 168° |
| 2026-05-06 06:50 | 37.56789 | 26.96230 | 2002 ft | 248 kts | 167° |
| 2026-05-06 06:50 | 37.55172 | 26.96641 | 1930 ft | 230 kts | 168° |
| 2026-05-06 06:50 | 37.53622 | 26.96978 | 1777 ft | 223 kts | 178° |
| 2026-05-06 06:51 | 37.52173 | 26.96497 | 1618 ft | 214 kts | 216° |
| 2026-05-06 06:51 | 37.51260 | 26.95115 | 1463 ft | 203 kts | 253° |
| 2026-05-06 06:51 | 37.51204 | 26.93418 | 1319 ft | 192 kts | 291° |
| 2026-05-06 06:51 | 37.51972 | 26.92144 | 1190 ft | 181 kts | 332° |
| 2026-05-06 06:52 | 37.53135 | 26.91778 | 1138 ft | 166 kts | 356° |
| 2026-05-06 06:52 | 37.54210 | 26.91554 | 1103 ft | 148 kts | 349° |
| 2026-05-06 06:52 | 37.55167 | 26.91223 | 1123 ft | 136 kts | 343° |
| 2026-05-06 06:52 | 37.56044 | 26.90821 | 1107 ft | 132 kts | 340° |
| 2026-05-06 06:53 | 37.56869 | 26.90344 | 1112 ft | 130 kts | 335° |
| 2026-05-06 06:53 | 37.57670 | 26.89822 | 1108 ft | 129 kts | 338° |
| 2026-05-06 06:53 | 37.58550 | 26.89613 | 1123 ft | 130 kts | 356° |
| 2026-05-06 06:53 | 37.59452 | 26.89581 | 1106 ft | 129 kts | 360° |
| 2026-05-06 06:54 | 37.60345 | 26.89600 | 1113 ft | 128 kts | 2° |
| 2026-05-06 06:54 | 37.61238 | 26.89651 | 1109 ft | 129 kts | 4° |
| 2026-05-06 06:54 | 37.62135 | 26.89715 | 1107 ft | 130 kts | 359° |
| 2026-05-06 06:54 | 37.62716 | 26.89548 | 1118 ft | 130 kts | 339° |
| 2026-05-06 06:55 | 37.63530 | 26.89051 | 1073 ft | 131 kts | 333° |
| 2026-05-06 06:55 | 37.64322 | 26.88496 | 865 ft | 131 kts | 331° |
| 2026-05-06 06:55 | 37.65117 | 26.87917 | 700 ft | 133 kts | 332° |
| 2026-05-06 06:55 | 37.65935 | 26.87391 | 675 ft | 133 kts | 337° |
| 2026-05-06 06:56 | 37.66818 | 26.87031 | 615 ft | 132 kts | 352° |
| 2026-05-06 06:56 | 37.67731 | 26.87103 | 689 ft | 133 kts | 10° |
| 2026-05-06 06:56 | 37.68611 | 26.87457 | 509 ft | 131 kts | 36° |
| 2026-05-06 06:56 | 37.69071 | 26.88405 | 398 ft | 133 kts | 88° |
| 2026-05-06 06:57 | 37.69037 | 26.89552 | 124 ft | 130 kts | 99° |
| 2026-05-06 06:57 | 37.68951 | 26.90629 | 29 ft | 99 kts | 94° |
| 2026-05-06 06:57 | 37.68939 | 26.91007 | 29 ft | 17 kts | 57° |
| 2026-05-06 06:57 | 37.68965 | 26.91040 | 33 ft | 0 kts | 38° |
| 2026-05-06 06:58 | 37.68993 | 26.91066 | 29 ft | 11 kts | 31° |
| 2026-05-06 06:58 | 37.69008 | 26.91162 | 29 ft | 13 kts | 89° |
| 2026-05-06 06:59 | 37.68998 | 26.91293 | 29 ft | 17 kts | 97° |
| 2026-05-06 06:59 | 37.68992 | 26.91411 | 29 ft | 13 kts | 90° |
| 2026-05-06 06:59 | 37.69043 | 26.91484 | 29 ft | 1 kts | 10° |